createdAt,value
2018-06-20T00:01:29.435Z,9.93
2018-06-20T00:03:57.774Z,9.13
2018-06-20T00:06:26.144Z,21.80
2018-06-20T00:08:54.485Z,11.10
2018-06-20T00:11:24.480Z,9.07
2018-06-20T00:13:53.779Z,8.33
2018-06-20T00:16:22.118Z,8.77
2018-06-20T00:18:50.585Z,11.40
2018-06-20T00:21:18.919Z,8.90
2018-06-20T00:23:47.257Z,9.43
2018-06-20T00:26:15.607Z,9.07
2018-06-20T00:28:43.954Z,9.37
2018-06-20T00:31:13.193Z,11.50
2018-06-20T00:33:41.534Z,10.90
2018-06-20T00:36:09.878Z,11.10
2018-06-20T00:38:38.234Z,9.40
2018-06-20T00:41:06.642Z,12.30
2018-06-20T00:43:34.997Z,11.90
2018-06-20T00:46:03.480Z,16.63
2018-06-20T00:48:31.835Z,10.93
2018-06-20T00:51:00.179Z,10.83
2018-06-20T00:53:28.570Z,10.97
2018-06-20T00:56:08.265Z,11.07
2018-06-20T00:58:36.640Z,10.93
2018-06-20T01:01:05.008Z,13.03
2018-06-20T01:03:33.371Z,11.13
2018-06-20T01:06:01.721Z,14.97
2018-06-20T01:08:30.063Z,12.03
2018-06-20T01:10:58.456Z,12.13
2018-06-20T01:13:26.818Z,14.00
2018-06-20T01:15:55.162Z,11.07
2018-06-20T01:18:23.562Z,12.60
2018-06-20T01:20:51.906Z,12.13
2018-06-20T01:23:20.359Z,14.60
2018-06-20T01:25:50.192Z,15.23
2018-06-20T01:28:20.207Z,16.13
2018-06-20T01:30:50.550Z,14.70
2018-06-20T01:33:20.388Z,16.43
2018-06-20T01:35:49.668Z,17.83
2018-06-20T01:38:19.042Z,18.80
2018-06-20T01:40:48.291Z,17.40
2018-06-20T01:43:17.658Z,17.30
2018-06-20T01:45:46.922Z,15.30
2018-06-20T01:48:15.267Z,13.87
2018-06-20T01:50:44.452Z,16.67
2018-06-20T01:53:12.843Z,21.90
2018-06-20T01:55:42.178Z,18.63
2018-06-20T01:58:11.505Z,18.70
2018-06-20T02:00:40.888Z,16.17
2018-06-20T02:03:10.118Z,16.50
2018-06-20T02:05:38.491Z,16.50
2018-06-20T02:08:07.713Z,17.30
2018-06-20T02:10:36.931Z,16.70
2018-06-20T02:13:06.184Z,18.10
2018-06-20T02:15:34.566Z,15.67
2018-06-20T02:18:02.930Z,17.73
2018-06-20T02:20:31.302Z,23.50
2018-06-20T02:22:59.659Z,20.23
2018-06-20T02:25:28.036Z,23.60
2018-06-20T02:27:56.391Z,18.27
2018-06-20T02:30:24.731Z,22.03
2018-06-20T02:32:53.084Z,17.73
2018-06-20T02:35:21.431Z,15.60
2018-06-20T02:37:49.775Z,20.10
2018-06-20T02:40:18.127Z,14.77
2018-06-20T02:42:46.480Z,17.57
2018-06-20T02:45:15.735Z,13.93
2018-06-20T02:47:44.793Z,18.90
2018-06-20T02:50:14.063Z,21.53
2018-06-20T02:52:42.421Z,14.30
2018-06-20T02:55:10.894Z,16.23
2018-06-20T02:57:39.307Z,17.50
2018-06-20T03:00:07.669Z,21.13
2018-06-20T03:02:36.015Z,20.30
2018-06-20T03:05:04.610Z,20.80
2018-06-20T03:07:32.966Z,28.50
2018-06-20T03:10:01.317Z,19.43
2018-06-20T03:12:29.662Z,18.63
2018-06-20T03:14:58.013Z,21.70
2018-06-20T03:17:26.367Z,17.30
2018-06-20T03:19:54.714Z,22.70
2018-06-20T03:22:23.081Z,15.00
2018-06-20T03:24:51.443Z,19.67
2018-06-20T03:27:19.840Z,18.47
2018-06-20T03:29:48.197Z,14.30
2018-06-20T03:32:16.546Z,17.13
2018-06-20T03:34:44.905Z,15.77
2018-06-20T03:37:13.274Z,21.70
2018-06-20T03:39:41.627Z,15.30
2018-06-20T03:42:09.977Z,14.83
2018-06-20T03:44:39.210Z,20.97
2018-06-20T03:47:08.445Z,20.10
2018-06-20T03:49:36.797Z,22.03
2018-06-20T03:52:05.156Z,14.33
2018-06-20T03:54:33.946Z,16.03
2018-06-20T03:57:02.311Z,18.47
2018-06-20T03:59:30.667Z,14.30
2018-06-20T04:01:59.028Z,14.40
2018-06-20T04:04:27.386Z,13.83
2018-06-20T04:06:55.737Z,14.80
2018-06-20T04:09:24.095Z,16.20
2018-06-20T04:11:53.497Z,17.03
2018-06-20T04:14:22.744Z,13.27
2018-06-20T04:16:52.178Z,17.43
2018-06-20T04:19:20.527Z,16.43
2018-06-20T04:21:48.874Z,14.20
2018-06-20T04:24:17.222Z,13.60
2018-06-20T04:26:45.584Z,16.50
2018-06-20T04:29:13.967Z,15.80
2018-06-20T04:31:42.336Z,13.80
2018-06-20T04:34:10.701Z,16.50
2018-06-20T04:36:39.059Z,14.43
2018-06-20T04:39:08.976Z,14.90
2018-06-20T04:41:37.346Z,18.30
2018-06-20T04:44:05.725Z,13.60
2018-06-20T04:46:34.089Z,25.73
2018-06-20T04:49:02.489Z,14.03
2018-06-20T04:51:30.841Z,18.23
2018-06-20T04:54:01.011Z,16.30
2018-06-20T04:56:29.446Z,13.70
2018-06-20T04:58:57.813Z,14.03
2018-06-20T05:01:27.181Z,13.80
2018-06-20T05:03:56.567Z,15.50
2018-06-20T05:06:24.954Z,14.90
2018-06-20T05:08:53.326Z,18.43
2018-06-20T05:11:22.585Z,13.83
2018-06-20T05:13:51.818Z,13.00
2018-06-20T05:16:20.210Z,12.80
2018-06-20T05:18:48.566Z,9.33
2018-06-20T05:21:17.858Z,11.50
2018-06-20T05:23:46.199Z,11.97
2018-06-20T05:26:14.588Z,7.47
2018-06-20T05:28:43.937Z,10.23
2018-06-20T05:31:13.224Z,12.00
2018-06-20T05:33:42.486Z,7.53
2018-06-20T05:36:10.835Z,6.67
2018-06-20T05:38:39.215Z,7.93
2018-06-20T05:41:07.566Z,9.00
2018-06-20T05:43:36.678Z,6.20
2018-06-20T05:46:05.044Z,5.90
2018-06-20T05:48:33.475Z,7.30
2018-06-20T05:51:02.830Z,4.97
2018-06-20T05:53:31.540Z,5.17
2018-06-20T05:55:59.873Z,5.30
2018-06-20T05:58:29.271Z,9.17
2018-06-20T06:00:58.546Z,7.53
2018-06-20T06:03:26.878Z,5.43
2018-06-20T06:06:06.564Z,7.03
2018-06-20T06:08:35.910Z,6.30
2018-06-20T06:11:05.087Z,12.47
2018-06-20T06:13:34.342Z,6.17
2018-06-20T06:16:03.102Z,8.80
2018-06-20T06:18:32.446Z,5.77
2018-06-20T06:21:01.855Z,4.83
2018-06-20T06:23:31.238Z,8.20
2018-06-20T06:25:59.599Z,8.20
2018-06-20T06:28:29.185Z,7.90
2018-06-20T06:30:57.701Z,6.07
2018-06-20T06:33:26.044Z,5.23
2018-06-20T06:35:54.613Z,6.70
2018-06-20T06:38:23.978Z,6.93
2018-06-20T06:40:52.522Z,7.67
2018-06-20T06:43:20.895Z,6.43
2018-06-20T06:45:49.234Z,4.67
2018-06-20T06:48:17.567Z,6.40
2018-06-20T06:50:46.052Z,5.13
2018-06-20T06:53:14.490Z,7.13
2018-06-20T06:55:42.846Z,5.60
2018-06-20T06:58:11.198Z,4.77
2018-06-20T07:00:40.478Z,5.80
2018-06-20T07:03:08.835Z,5.40
2018-06-20T07:05:37.972Z,6.10
2018-06-20T07:08:06.305Z,6.20
2018-06-20T07:10:35.663Z,6.03
2018-06-20T07:13:04.005Z,6.00
2018-06-20T07:15:33.361Z,7.73
2018-06-20T07:18:01.726Z,6.67
2018-06-20T07:20:31.087Z,10.57
2018-06-20T07:22:59.431Z,6.47
2018-06-20T07:25:28.656Z,7.87
2018-06-20T07:27:56.985Z,9.67
2018-06-20T07:30:26.238Z,7.57
2018-06-20T07:32:54.573Z,5.60
2018-06-20T07:35:23.001Z,5.93
2018-06-20T07:37:52.278Z,7.50
2018-06-20T07:40:20.614Z,8.47
2018-06-20T07:42:49.958Z,8.73
2018-06-20T07:45:18.324Z,5.30
2018-06-20T07:47:47.503Z,6.57
2018-06-20T07:50:15.900Z,10.27
2018-06-20T07:52:44.250Z,7.17
2018-06-20T07:55:12.664Z,7.43
2018-06-20T07:57:41.731Z,9.47
2018-06-20T08:00:15.289Z,7.83
2018-06-20T08:03:00.226Z,6.27
2018-06-20T08:05:33.943Z,6.17
2018-06-20T08:08:08.482Z,6.97
2018-06-20T08:10:43.074Z,11.57
2018-06-20T08:13:17.593Z,8.73
2018-06-20T08:15:52.217Z,8.73
2018-06-20T08:18:25.784Z,6.27
2018-06-20T08:20:55.105Z,6.10
2018-06-20T08:23:23.453Z,5.87
2018-06-20T08:25:51.855Z,6.33
2018-06-20T08:28:20.183Z,8.93
2018-06-20T08:30:48.531Z,5.30
2018-06-20T08:33:16.886Z,13.77
2018-06-20T08:35:45.236Z,9.30
2018-06-20T08:38:13.590Z,6.27
2018-06-20T08:40:41.941Z,7.17
2018-06-20T08:43:10.316Z,9.80
2018-06-20T08:45:38.726Z,6.17
2018-06-20T08:48:07.130Z,7.07
2018-06-20T08:50:35.522Z,12.80
2018-06-20T08:53:03.912Z,7.40
2018-06-20T08:55:33.129Z,7.33
2018-06-20T08:58:02.417Z,7.27
2018-06-20T09:00:36.006Z,11.07
2018-06-20T09:03:04.382Z,11.67
2018-06-20T09:05:38.158Z,8.80
2018-06-20T09:08:12.858Z,7.23
2018-06-20T09:12:54.414Z,6.70
2018-06-20T09:15:28.062Z,6.80
2018-06-20T09:18:02.620Z,9.33
2018-06-20T09:20:31.022Z,16.73
2018-06-20T09:22:59.359Z,7.43
2018-06-20T09:25:27.694Z,9.07
2018-06-20T09:27:56.931Z,7.53
2018-06-20T09:30:26.273Z,9.97
2018-06-20T09:32:54.702Z,7.00
2018-06-20T09:35:23.039Z,11.20
2018-06-20T09:37:51.429Z,8.80
2018-06-20T09:40:19.768Z,14.77
2018-06-20T09:42:48.147Z,14.50
2018-06-20T09:45:17.386Z,7.60
2018-06-20T09:47:45.731Z,8.77
2018-06-20T09:50:20.315Z,8.40
2018-06-20T09:52:48.697Z,9.23
2018-06-20T09:55:17.955Z,9.13
2018-06-20T09:57:47.265Z,11.43
2018-06-20T10:00:21.786Z,8.07
2018-06-20T10:02:55.470Z,13.13
2018-06-20T10:05:30.122Z,8.23
2018-06-20T10:08:04.808Z,12.73
2018-06-20T10:10:39.481Z,7.90
2018-06-20T10:13:13.764Z,11.93
2018-06-20T10:15:42.960Z,49.03
2018-06-20T10:18:11.353Z,9.90
2018-06-20T10:20:40.604Z,8.90
2018-06-20T10:23:09.899Z,7.77
2018-06-20T10:25:39.130Z,12.40
2018-06-20T10:28:08.341Z,9.13
2018-06-20T10:30:37.690Z,35.03
2018-06-20T10:33:06.050Z,8.40
2018-06-20T10:35:34.434Z,13.47
2018-06-20T10:38:03.719Z,8.90
2018-06-20T10:40:32.102Z,8.50
2018-06-20T10:43:01.526Z,7.90
2018-06-20T10:45:35.183Z,7.20
2018-06-20T10:48:09.881Z,8.20
2018-06-20T10:50:38.962Z,9.43
2018-06-20T10:53:08.340Z,6.87
2018-06-20T10:55:38.838Z,8.07
2018-06-20T10:58:13.714Z,8.63
2018-06-20T11:00:47.732Z,10.57
2018-06-20T11:03:21.423Z,8.17
2018-06-20T11:05:55.122Z,7.63
2018-06-20T11:08:29.806Z,8.40
2018-06-20T11:11:04.420Z,10.83
2018-06-20T11:13:33.675Z,8.27
2018-06-20T11:16:02.946Z,7.10
2018-06-20T11:18:33.602Z,8.83
2018-06-20T11:21:02.005Z,9.20
2018-06-20T11:23:30.375Z,8.83
2018-06-20T11:25:58.738Z,6.87
2018-06-20T11:28:27.090Z,8.53
2018-06-20T11:30:55.462Z,7.00
2018-06-20T11:33:23.822Z,11.03
2018-06-20T11:35:52.204Z,7.23
2018-06-20T11:38:21.487Z,7.40
2018-06-20T11:40:50.299Z,10.27
2018-06-20T11:43:18.868Z,8.70
2018-06-20T11:45:52.530Z,7.67
2018-06-20T11:48:20.878Z,10.10
2018-06-20T11:50:49.249Z,6.80
2018-06-20T11:53:17.582Z,6.70
2018-06-20T11:55:47.026Z,16.97
2018-06-20T11:58:20.613Z,8.70
2018-06-20T12:00:54.254Z,7.60
2018-06-20T12:03:27.965Z,12.63
2018-06-20T12:06:01.641Z,7.83
2018-06-20T12:08:35.357Z,6.53
2018-06-20T12:11:08.954Z,7.10
2018-06-20T12:13:42.590Z,8.10
2018-06-20T12:16:24.047Z,7.63
2018-06-20T12:18:57.733Z,8.60
2018-06-20T12:21:31.546Z,7.17
2018-06-20T12:24:05.216Z,6.57
2018-06-20T12:26:38.817Z,5.83
2018-06-20T12:29:12.554Z,7.50
2018-06-20T12:31:46.151Z,5.13
2018-06-20T12:34:19.914Z,6.13
2018-06-20T12:36:53.630Z,5.60
2018-06-20T12:39:21.164Z,6.40
2018-06-20T12:41:54.977Z,8.87
2018-06-20T12:44:30.414Z,8.77
2018-06-20T12:47:01.356Z,7.37
2018-06-20T12:49:34.448Z,6.07
2018-06-20T12:52:03.709Z,8.20
2018-06-20T12:54:32.384Z,6.07
2018-06-20T12:57:01.735Z,6.20
2018-06-20T12:59:31.131Z,5.40
2018-06-20T13:01:59.491Z,6.03
2018-06-20T13:04:27.849Z,8.20
2018-06-20T13:06:56.198Z,6.77
2018-06-20T13:09:24.564Z,6.43
2018-06-20T13:11:53.906Z,8.03
2018-06-20T13:14:23.161Z,6.87
2018-06-20T13:16:51.513Z,8.20
2018-06-20T13:19:19.869Z,9.30
2018-06-20T13:21:48.232Z,8.57
2018-06-20T13:24:16.582Z,8.30
2018-06-20T13:26:45.842Z,8.20
2018-06-20T13:29:15.086Z,7.40
2018-06-20T13:31:49.778Z,8.17
2018-06-20T13:34:24.447Z,7.00
2018-06-20T13:36:59.090Z,7.47
2018-06-20T13:39:33.917Z,7.23
2018-06-20T13:42:08.778Z,9.80
2018-06-20T13:44:38.038Z,6.73
2018-06-20T13:47:12.707Z,6.90
2018-06-20T13:49:41.996Z,8.63
2018-06-20T13:52:11.212Z,7.07
2018-06-20T13:54:39.574Z,7.27
2018-06-20T13:57:08.948Z,9.20
2018-06-20T13:59:38.201Z,8.50
2018-06-20T14:02:07.504Z,9.07
2018-06-20T14:04:36.873Z,9.70
2018-06-20T14:07:06.159Z,7.97
2018-06-20T14:09:34.547Z,5.90
2018-06-20T14:12:04.712Z,6.13
2018-06-20T14:14:33.092Z,5.93
2018-06-20T14:17:02.365Z,6.33
2018-06-20T14:19:36.913Z,5.70
2018-06-20T14:22:06.335Z,6.00
2018-06-20T14:24:34.683Z,10.13
2018-06-20T14:27:04.065Z,6.30
2018-06-20T14:29:38.576Z,9.77
2018-06-20T14:32:13.287Z,7.47
2018-06-20T14:34:46.987Z,7.33
2018-06-20T14:37:20.665Z,6.20
2018-06-20T14:39:54.362Z,8.10
2018-06-20T14:42:29.014Z,6.20
2018-06-20T14:45:02.811Z,5.93
2018-06-20T14:47:31.227Z,7.63
2018-06-20T14:50:00.245Z,6.67
2018-06-20T14:52:28.645Z,5.73
2018-06-20T14:54:57.080Z,7.63
2018-06-20T14:57:26.451Z,6.10
2018-06-20T14:59:54.857Z,7.70
2018-06-20T15:02:23.219Z,6.30
2018-06-20T15:04:51.617Z,5.17
2018-06-20T15:07:21.014Z,6.47
2018-06-20T15:09:49.387Z,9.03
2018-06-20T15:12:18.832Z,7.83
2018-06-20T15:14:47.194Z,5.63
2018-06-20T15:17:20.940Z,5.07
2018-06-20T15:19:49.344Z,5.60
2018-06-20T15:22:18.674Z,5.20
2018-06-20T15:24:47.954Z,8.17
2018-06-20T15:27:21.442Z,7.47
2018-06-20T15:29:55.074Z,6.60
2018-06-20T15:32:28.772Z,5.60
2018-06-20T15:35:02.465Z,6.57
2018-06-20T15:37:36.156Z,5.40
2018-06-20T15:40:05.028Z,4.73
2018-06-20T15:42:33.421Z,8.47
2018-06-20T15:45:01.781Z,12.90
2018-06-20T15:47:30.233Z,5.43
2018-06-20T15:49:58.590Z,6.53
2018-06-20T15:52:27.885Z,5.50
2018-06-20T15:54:56.266Z,5.80
2018-06-20T15:57:24.652Z,8.13
2018-06-20T15:59:53.079Z,5.10
2018-06-20T16:02:21.546Z,5.00
2018-06-20T16:04:49.921Z,10.20
2018-06-20T16:07:18.287Z,5.90
2018-06-20T16:09:57.352Z,7.93
2018-06-20T16:12:26.254Z,26.50
2018-06-20T16:14:56.434Z,25.53
2018-06-20T16:17:26.034Z,13.20
2018-06-20T16:20:00.653Z,12.20
2018-06-20T16:22:34.396Z,14.60
2018-06-20T16:25:08.098Z,5.73
2018-06-20T16:29:47.459Z,6.50
2018-06-20T16:32:15.859Z,6.00
2018-06-20T16:34:45.115Z,6.67
2018-06-20T16:37:13.484Z,6.00
2018-06-20T16:39:42.845Z,7.90
2018-06-20T16:42:12.121Z,5.10
2018-06-20T16:44:40.533Z,5.67
2018-06-20T16:47:10.214Z,5.80
2018-06-20T16:49:39.527Z,4.30
2018-06-20T16:52:08.768Z,4.50
2018-06-20T16:54:38.074Z,4.33
2018-06-20T16:57:06.847Z,5.40
2018-06-20T16:59:36.184Z,5.97
2018-06-20T17:02:10.727Z,5.67
2018-06-20T17:04:40.135Z,8.70
2018-06-20T17:07:08.585Z,5.13
2018-06-20T17:09:37.863Z,4.80
2018-06-20T17:12:12.519Z,5.20
2018-06-20T17:14:46.159Z,5.57
2018-06-20T17:17:19.858Z,6.10
2018-06-20T17:19:54.566Z,6.40
2018-06-20T17:22:28.240Z,5.73
2018-06-20T17:25:01.962Z,4.47
2018-06-20T17:27:30.407Z,4.13
2018-06-20T17:29:58.757Z,4.03
2018-06-20T17:32:27.175Z,5.47
2018-06-20T17:34:55.823Z,4.77
2018-06-20T17:37:24.173Z,8.03
2018-06-20T17:39:52.535Z,5.20
2018-06-20T17:42:20.954Z,6.43
2018-06-20T17:44:49.310Z,4.07
2018-06-20T17:47:17.679Z,5.23
2018-06-20T17:49:46.102Z,5.10
2018-06-20T17:52:14.462Z,5.53
2018-06-20T17:54:42.835Z,5.50
2018-06-20T17:57:12.260Z,5.73
2018-06-20T17:59:41.558Z,6.23
2018-06-20T18:02:10.964Z,6.20
2018-06-20T18:04:44.717Z,5.50
2018-06-20T18:07:18.371Z,7.20
2018-06-20T18:09:52.182Z,5.33
2018-06-20T18:12:27.454Z,10.03
2018-06-20T18:15:01.170Z,5.50
2018-06-20T18:17:29.569Z,7.80
2018-06-20T18:19:57.963Z,7.23
2018-06-20T18:22:26.359Z,6.17
2018-06-20T18:24:54.844Z,7.53
2018-06-20T18:27:23.262Z,15.57
2018-06-20T18:29:51.668Z,7.80
2018-06-20T18:32:20.041Z,10.53
2018-06-20T18:34:48.423Z,5.50
2018-06-20T18:37:16.780Z,6.17
2018-06-20T18:39:51.586Z,6.33
2018-06-20T18:42:20.781Z,5.97
2018-06-20T18:44:50.168Z,5.43
2018-06-20T18:47:23.767Z,5.27
2018-06-20T18:49:52.627Z,5.87
2018-06-20T18:52:21.926Z,5.57
2018-06-20T18:54:51.176Z,9.90
2018-06-20T18:57:25.473Z,7.67
2018-06-20T18:59:59.167Z,7.93
2018-06-20T19:02:42.356Z,7.47
2018-06-20T19:05:16.080Z,7.90
2018-06-20T19:07:50.855Z,9.97
2018-06-20T19:10:19.223Z,6.53
2018-06-20T19:12:48.608Z,7.10
2018-06-20T19:15:17.007Z,5.53
2018-06-20T19:17:46.327Z,6.00
2018-06-20T19:20:14.724Z,5.30
2018-06-20T19:22:43.883Z,7.63
2018-06-20T19:25:12.239Z,6.80
2018-06-20T19:27:41.645Z,12.00
2018-06-20T19:30:10.916Z,8.37
2018-06-20T19:32:40.311Z,6.13
2018-06-20T19:35:09.560Z,5.97
2018-06-20T19:37:37.930Z,6.47
2018-06-20T19:40:07.310Z,8.30
2018-06-20T19:42:35.668Z,9.33
2018-06-20T19:45:04.125Z,8.27
2018-06-20T19:47:32.510Z,9.10
2018-06-20T19:50:01.771Z,6.80
2018-06-20T19:52:30.167Z,10.23
2018-06-20T19:54:58.526Z,7.33
2018-06-20T19:57:27.907Z,12.03
2018-06-20T19:59:56.318Z,11.80
2018-06-20T20:02:25.682Z,8.10
2018-06-20T20:04:55.110Z,10.13
2018-06-20T20:07:23.450Z,11.30
2018-06-20T20:09:51.901Z,9.60
2018-06-20T20:12:21.332Z,7.77
2018-06-20T20:14:49.749Z,10.20
2018-06-20T20:17:19.175Z,9.53
2018-06-20T20:19:47.541Z,10.03
2018-06-20T20:22:15.897Z,11.90
2018-06-20T20:24:44.252Z,12.80
2018-06-20T20:27:12.634Z,14.80
2018-06-20T20:29:40.986Z,11.60
2018-06-20T20:32:09.380Z,12.10
2018-06-20T20:34:37.761Z,18.43
2018-06-20T20:37:06.124Z,10.07
2018-06-20T20:39:34.500Z,6.77
2018-06-20T20:42:02.952Z,9.93
2018-06-20T20:44:33.621Z,8.60
2018-06-20T20:47:02.948Z,7.73
2018-06-20T20:49:32.407Z,8.00
2018-06-20T20:52:00.785Z,7.90
2018-06-20T20:54:29.143Z,8.33
2018-06-20T20:56:57.542Z,10.07
2018-06-20T20:59:25.907Z,7.90
2018-06-20T21:01:54.708Z,7.47
2018-06-20T21:04:23.054Z,11.67
2018-06-20T21:06:51.563Z,12.80
2018-06-20T21:09:20.090Z,9.33
2018-06-20T21:11:49.129Z,11.70
2018-06-20T21:14:17.514Z,9.70
2018-06-20T21:16:45.947Z,13.13
2018-06-20T21:19:14.338Z,11.60
2018-06-20T21:21:42.682Z,11.00
2018-06-20T21:24:11.034Z,10.60
2018-06-20T21:26:40.195Z,12.40
2018-06-20T21:29:08.603Z,9.10
2018-06-20T21:31:37.051Z,8.70
2018-06-20T21:34:05.411Z,13.60
2018-06-20T21:36:33.879Z,11.40
2018-06-20T21:39:02.265Z,17.50
2018-06-20T21:41:31.624Z,13.67
2018-06-20T21:44:00.894Z,25.73
2018-06-20T21:46:30.270Z,17.20
2018-06-20T21:48:58.630Z,10.87
2018-06-20T21:51:27.023Z,22.47
2018-06-20T21:53:55.369Z,12.57
2018-06-20T21:56:23.727Z,19.83
2018-06-20T21:58:52.098Z,11.40
2018-06-20T22:01:20.459Z,16.37
2018-06-20T22:03:48.871Z,15.67
2018-06-20T22:06:17.237Z,17.70
2018-06-20T22:08:45.596Z,12.60
2018-06-20T22:11:14.053Z,14.10
2018-06-20T22:13:42.422Z,13.57
2018-06-20T22:16:11.686Z,14.03
2018-06-20T22:18:40.104Z,14.13
2018-06-20T22:21:09.368Z,17.90
2018-06-20T22:23:38.789Z,12.60
2018-06-20T22:26:08.154Z,15.50
2018-06-20T22:28:36.516Z,16.83
2018-06-20T22:31:04.877Z,13.67
2018-06-20T22:33:33.258Z,16.90
2018-06-20T22:36:01.604Z,14.30
2018-06-20T22:38:29.993Z,13.67
2018-06-20T22:40:59.142Z,15.00
2018-06-20T22:43:27.491Z,18.83
2018-06-20T22:45:55.844Z,13.33
2018-06-20T22:48:24.212Z,14.43
2018-06-20T22:50:52.611Z,13.37
2018-06-20T22:53:20.984Z,18.80
2018-06-20T22:55:49.331Z,14.37
2018-06-20T22:58:17.692Z,11.90
2018-06-20T23:00:46.047Z,17.47
2018-06-20T23:03:14.415Z,11.60
2018-06-20T23:05:42.769Z,16.07
2018-06-20T23:08:11.167Z,15.03
2018-06-20T23:10:39.533Z,16.70
2018-06-20T23:13:08.006Z,22.37
2018-06-20T23:15:36.349Z,16.00
2018-06-20T23:18:04.997Z,14.73
2018-06-20T23:20:34.443Z,17.97
2018-06-20T23:23:03.135Z,19.27
2018-06-20T23:25:31.541Z,14.80
2018-06-20T23:28:00.799Z,13.57
2018-06-20T23:30:29.156Z,14.67
2018-06-20T23:32:57.522Z,14.47
2018-06-20T23:35:25.889Z,14.70
2018-06-20T23:37:55.260Z,14.70
2018-06-20T23:40:24.421Z,19.10
2018-06-20T23:42:52.823Z,18.23
2018-06-20T23:45:22.065Z,14.50
2018-06-20T23:47:50.433Z,17.13
2018-06-20T23:50:18.787Z,14.60
2018-06-20T23:52:47.125Z,16.20
2018-06-20T23:55:15.476Z,15.40
2018-06-20T23:57:43.846Z,16.47
